Anderson, Texas
Current Conditions -  °F | °C
As of 3:53 PM on Wednesday 22 Oct 2014 (Local Time) from KCLL Reporting Station
Light Rain Light Rain  
Wind Chill: 81°   Ceiling: Unl
Heat Index: 81°   Visibility: 10mi
Dew Point: 57°   Wind: 9mph
Humidity: 44%   Direction: 60°ENE
Pressure: 30.05"   Gusts: NA
Location:  30.49°N, 95.99°W
Report Text: KCLL 222053Z 06008KT 10SM -RA CLR 27/14 A3005 RMK AO2 RAB46 SLP171 P0000 60000 T02720139 56023
Loading
Personal Weather Stations






























Interactive Weather Map
Tropical Storm Tracking
New forecast layout! Learn more

10-Day Weather Forecast

Advertisements
Track Severe Weather on mobile